sensor_id;sensor_type;location;lat;lon;timestamp;pressure;altitude;pressure_sealevel;temperature;humidity
38038;BME280;23843;51.320;12.340;2023-06-14T00:00:25;100371.16;;;14.55;67.62
38038;BME280;23843;51.320;12.340;2023-06-14T00:02:51;100379.44;;;14.50;69.14
38038;BME280;23843;51.320;12.340;2023-06-14T00:05:17;100375.84;;;14.51;68.92
38038;BME280;23843;51.320;12.340;2023-06-14T00:07:42;100370.94;;;14.45;66.89
38038;BME280;23843;51.320;12.340;2023-06-14T00:10:09;100378.16;;;14.43;67.15
38038;BME280;23843;51.320;12.340;2023-06-14T00:12:34;100371.38;;;14.39;70.53
38038;BME280;23843;51.320;12.340;2023-06-14T00:15:00;100371.03;;;14.31;72.72
38038;BME280;23843;51.320;12.340;2023-06-14T00:17:25;100375.50;;;14.30;71.94
38038;BME280;23843;51.320;12.340;2023-06-14T00:19:52;100376.59;;;14.28;72.25
38038;BME280;23843;51.320;12.340;2023-06-14T00:22:18;100381.16;;;14.26;72.97
38038;BME280;23843;51.320;12.340;2023-06-14T00:24:43;100372.63;;;14.21;71.65
38038;BME280;23843;51.320;12.340;2023-06-14T00:27:08;100382.22;;;14.10;74.38
38038;BME280;23843;51.320;12.340;2023-06-14T00:29:34;100380.31;;;14.12;70.04
38038;BME280;23843;51.320;12.340;2023-06-14T00:31:59;100377.75;;;14.11;73.18
38038;BME280;23843;51.320;12.340;2023-06-14T00:34:25;100379.78;;;14.07;74.85
38038;BME280;23843;51.320;12.340;2023-06-14T00:36:52;100368.59;;;14.02;77.25
38038;BME280;23843;51.320;12.340;2023-06-14T00:39:17;100380.94;;;14.03;77.63
38038;BME280;23843;51.320;12.340;2023-06-14T00:41:43;100383.59;;;14.03;76.15
38038;BME280;23843;51.320;12.340;2023-06-14T00:44:08;100377.22;;;14.06;74.02
38038;BME280;23843;51.320;12.340;2023-06-14T00:46:33;100371.44;;;13.99;76.52
38038;BME280;23843;51.320;12.340;2023-06-14T00:49:00;100369.53;;;14.01;73.31
38038;BME280;23843;51.320;12.340;2023-06-14T00:51:26;100373.25;;;13.99;77.25
38038;BME280;23843;51.320;12.340;2023-06-14T00:53:53;100374.75;;;13.90;79.44
38038;BME280;23843;51.320;12.340;2023-06-14T00:56:19;100375.91;;;13.86;80.23
38038;BME280;23843;51.320;12.340;2023-06-14T00:58:44;100375.06;;;13.85;77.96
38038;BME280;23843;51.320;12.340;2023-06-14T01:01:10;100365.25;;;13.86;75.47
38038;BME280;23843;51.320;12.340;2023-06-14T01:03:36;100368.84;;;13.85;78.04
38038;BME280;23843;51.320;12.340;2023-06-14T01:06:09;100371.84;;;13.80;77.81
38038;BME280;23843;51.320;12.340;2023-06-14T01:08:47;100376.81;;;13.72;81.50
38038;BME280;23843;51.320;12.340;2023-06-14T01:11:22;100374.66;;;13.64;82.16
38038;BME280;23843;51.320;12.340;2023-06-14T01:13:52;100376.69;;;13.61;83.09
38038;BME280;23843;51.320;12.340;2023-06-14T01:16:19;100385.38;;;13.50;85.32
38038;BME280;23843;51.320;12.340;2023-06-14T01:18:45;100384.63;;;13.48;83.56
38038;BME280;23843;51.320;12.340;2023-06-14T01:21:20;100378.91;;;13.54;80.05
38038;BME280;23843;51.320;12.340;2023-06-14T01:23:47;100379.38;;;13.61;78.15
38038;BME280;23843;51.320;12.340;2023-06-14T01:26:13;100376.56;;;13.62;80.46
38038;BME280;23843;51.320;12.340;2023-06-14T01:28:38;100378.69;;;13.57;83.96
38038;BME280;23843;51.320;12.340;2023-06-14T01:31:04;100375.94;;;13.59;80.42
38038;BME280;23843;51.320;12.340;2023-06-14T01:33:31;100379.53;;;13.58;81.80
38038;BME280;23843;51.320;12.340;2023-06-14T01:35:58;100385.53;;;13.61;80.48
38038;BME280;23843;51.320;12.340;2023-06-14T01:38:26;100383.38;;;13.54;84.97
38038;BME280;23843;51.320;12.340;2023-06-14T01:40:54;100386.22;;;13.51;82.59
38038;BME280;23843;51.320;12.340;2023-06-14T01:43:22;100377.09;;;13.55;78.81
38038;BME280;23843;51.320;12.340;2023-06-14T01:45:50;100380.41;;;13.58;79.40
38038;BME280;23843;51.320;12.340;2023-06-14T01:48:18;100375.28;;;13.55;81.89
38038;BME280;23843;51.320;12.340;2023-06-14T01:50:44;100373.88;;;13.49;85.16
38038;BME280;23843;51.320;12.340;2023-06-14T01:53:10;100382.84;;;13.48;84.05
38038;BME280;23843;51.320;12.340;2023-06-14T01:55:36;100387.81;;;13.53;80.29
38038;BME280;23843;51.320;12.340;2023-06-14T01:58:03;100387.66;;;13.56;78.32
38038;BME280;23843;51.320;12.340;2023-06-14T02:00:29;100385.28;;;13.52;83.37
38038;BME280;23843;51.320;12.340;2023-06-14T02:02:55;100377.59;;;13.47;82.64
38038;BME280;23843;51.320;12.340;2023-06-14T02:05:20;100387.28;;;13.48;79.81
38038;BME280;23843;51.320;12.340;2023-06-14T02:07:46;100385.38;;;13.50;78.44
38038;BME280;23843;51.320;12.340;2023-06-14T02:10:11;100389.94;;;13.48;81.64
38038;BME280;23843;51.320;12.340;2023-06-14T02:12:37;100389.00;;;13.49;79.75
38038;BME280;23843;51.320;12.340;2023-06-14T02:15:04;100387.28;;;13.48;79.61
38038;BME280;23843;51.320;12.340;2023-06-14T02:17:30;100382.59;;;13.39;83.16
38038;BME280;23843;51.320;12.340;2023-06-14T02:20:03;100380.00;;;13.37;82.83
38038;BME280;23843;51.320;12.340;2023-06-14T02:22:29;100388.09;;;13.36;83.60
38038;BME280;23843;51.320;12.340;2023-06-14T02:24:55;100394.38;;;13.35;82.02
38038;BME280;23843;51.320;12.340;2023-06-14T02:27:20;100392.56;;;13.35;82.92
38038;BME280;23843;51.320;12.340;2023-06-14T02:29:46;100393.69;;;13.31;82.23
38038;BME280;23843;51.320;12.340;2023-06-14T02:32:12;100392.75;;;13.32;81.05
38038;BME280;23843;51.320;12.340;2023-06-14T02:34:38;100389.13;;;13.33;76.86
38038;BME280;23843;51.320;12.340;2023-06-14T02:37:04;100401.59;;;13.33;80.64
38038;BME280;23843;51.320;12.340;2023-06-14T02:39:29;100404.63;;;13.26;86.31
38038;BME280;23843;51.320;12.340;2023-06-14T02:41:55;100403.97;;;13.23;82.64
38038;BME280;23843;51.320;12.340;2023-06-14T02:44:24;100404.25;;;13.18;87.24
38038;BME280;23843;51.320;12.340;2023-06-14T02:46:50;100411.69;;;13.13;87.86
38038;BME280;23843;51.320;12.340;2023-06-14T02:49:17;100404.09;;;13.07;88.26
38038;BME280;23843;51.320;12.340;2023-06-14T02:51:42;100408.09;;;13.00;87.94
38038;BME280;23843;51.320;12.340;2023-06-14T02:54:07;100412.28;;;12.90;93.11
38038;BME280;23843;51.320;12.340;2023-06-14T02:56:33;100405.19;;;12.90;86.98
38038;BME280;23843;51.320;12.340;2023-06-14T02:58:58;100405.47;;;12.85;93.40
38038;BME280;23843;51.320;12.340;2023-06-14T03:01:25;100403.66;;;12.86;89.80
38038;BME280;23843;51.320;12.340;2023-06-14T03:03:50;100407.06;;;12.88;91.60
38038;BME280;23843;51.320;12.340;2023-06-14T03:06:17;100412.66;;;12.83;89.48
38038;BME280;23843;51.320;12.340;2023-06-14T03:08:42;100413.53;;;12.84;93.35
38038;BME280;23843;51.320;12.340;2023-06-14T03:11:08;100417.03;;;12.84;91.13
38038;BME280;23843;51.320;12.340;2023-06-14T03:13:33;100408.97;;;12.86;91.55
38038;BME280;23843;51.320;12.340;2023-06-14T03:15:59;100411.06;;;12.81;94.65
38038;BME280;23843;51.320;12.340;2023-06-14T03:18:24;100415.91;;;12.74;94.85
38038;BME280;23843;51.320;12.340;2023-06-14T03:20:50;100417.34;;;12.66;97.16
38038;BME280;23843;51.320;12.340;2023-06-14T03:23:16;100415.25;;;12.71;93.84
38038;BME280;23843;51.320;12.340;2023-06-14T03:25:42;100420.38;;;12.74;90.54
38038;BME280;23843;51.320;12.340;2023-06-14T03:28:08;100422.53;;;12.81;88.45
38038;BME280;23843;51.320;12.340;2023-06-14T03:30:33;100425.56;;;12.90;84.87
38038;BME280;23843;51.320;12.340;2023-06-14T03:32:59;100428.22;;;12.90;88.03
38038;BME280;23843;51.320;12.340;2023-06-14T03:35:24;100433.53;;;12.90;93.29
38038;BME280;23843;51.320;12.340;2023-06-14T03:37:49;100432.41;;;12.94;90.23
38038;BME280;23843;51.320;12.340;2023-06-14T03:40:18;100431.75;;;12.90;91.99
38038;BME280;23843;51.320;12.340;2023-06-14T03:42:44;100425.47;;;12.91;90.88
38038;BME280;23843;51.320;12.340;2023-06-14T03:45:10;100432.41;;;12.94;90.21
38038;BME280;23843;51.320;12.340;2023-06-14T03:47:35;100433.25;;;12.94;93.53
38038;BME280;23843;51.320;12.340;2023-06-14T03:50:01;100436.75;;;12.95;89.18
38038;BME280;23843;51.320;12.340;2023-06-14T03:52:26;100435.16;;;12.92;95.44
38038;BME280;23843;51.320;12.340;2023-06-14T03:54:52;100442.00;;;12.96;91.31
38038;BME280;23843;51.320;12.340;2023-06-14T03:57:19;100445.91;;;12.76;98.50
38038;BME280;23843;51.320;12.340;2023-06-14T03:59:45;100441.63;;;12.74;99.79
38038;BME280;23843;51.320;12.340;2023-06-14T04:02:10;100454.81;;;12.90;93.11
38038;BME280;23843;51.320;12.340;2023-06-14T04:04:36;100450.06;;;12.95;94.17
38038;BME280;23843;51.320;12.340;2023-06-14T04:07:01;100446.81;;;13.04;92.81
38038;BME280;23843;51.320;12.340;2023-06-14T04:09:27;100452.44;;;12.99;96.89
38038;BME280;23843;51.320;12.340;2023-06-14T04:11:53;100448.44;;;13.06;93.97
38038;BME280;23843;51.320;12.340;2023-06-14T04:14:20;100458.03;;;13.09;96.46
38038;BME280;23843;51.320;12.340;2023-06-14T04:16:46;100452.53;;;13.12;94.89
38038;BME280;23843;51.320;12.340;2023-06-14T04:19:12;100452.97;;;13.19;94.11
38038;BME280;23843;51.320;12.340;2023-06-14T04:21:37;100453.53;;;13.24;96.31
38038;BME280;23843;51.320;12.340;2023-06-14T04:24:03;100458.44;;;13.32;93.19
38038;BME280;23843;51.320;12.340;2023-06-14T04:26:29;100460.28;;;13.58;93.39
38038;BME280;23843;51.320;12.340;2023-06-14T04:28:55;100455.47;;;13.78;94.24
38038;BME280;23843;51.320;12.340;2023-06-14T04:31:22;100460.75;;;14.05;92.38
38038;BME280;23843;51.320;12.340;2023-06-14T04:33:47;100464.84;;;14.36;89.89
38038;BME280;23843;51.320;12.340;2023-06-14T04:36:13;100469.38;;;14.74;86.82
38038;BME280;23843;51.320;12.340;2023-06-14T04:38:38;100474.22;;;15.31;83.17
38038;BME280;23843;51.320;12.340;2023-06-14T04:41:04;100471.72;;;16.02;77.62
38038;BME280;23843;51.320;12.340;2023-06-14T04:43:29;100458.22;;;16.97;69.54
38038;BME280;23843;51.320;12.340;2023-06-14T04:45:55;100462.13;;;18.13;64.20
38038;BME280;23843;51.320;12.340;2023-06-14T04:48:22;100467.19;;;18.70;60.14
38038;BME280;23843;51.320;12.340;2023-06-14T04:50:47;100466.66;;;18.55;59.22
38038;BME280;23843;51.320;12.340;2023-06-14T04:53:13;100458.47;;;19.39;56.64
38038;BME280;23843;51.320;12.340;2023-06-14T04:55:38;100459.41;;;19.69;55.23
38038;BME280;23843;51.320;12.340;2023-06-14T04:58:04;100459.63;;;19.46;57.02
38038;BME280;23843;51.320;12.340;2023-06-14T05:00:29;100458.50;;;19.58;55.02
38038;BME280;23843;51.320;12.340;2023-06-14T05:02:55;100459.69;;;20.24;52.94
38038;BME280;23843;51.320;12.340;2023-06-14T05:05:22;100467.72;;;21.65;47.37
38038;BME280;23843;51.320;12.340;2023-06-14T05:07:47;100459.47;;;22.56;45.47
38038;BME280;23843;51.320;12.340;2023-06-14T05:10:13;100461.91;;;22.68;43.41
38038;BME280;23843;51.320;12.340;2023-06-14T05:12:38;100461.63;;;22.27;44.72
38038;BME280;23843;51.320;12.340;2023-06-14T05:15:04;100461.16;;;23.52;43.13
38038;BME280;23843;51.320;12.340;2023-06-14T05:17:30;100459.06;;;24.78;39.65
38038;BME280;23843;51.320;12.340;2023-06-14T05:19:56;100453.66;;;25.66;38.41
38038;BME280;23843;51.320;12.340;2023-06-14T05:22:22;100456.91;;;25.92;38.63
38038;BME280;23843;51.320;12.340;2023-06-14T05:24:48;100464.22;;;25.52;35.86
38038;BME280;23843;51.320;12.340;2023-06-14T05:27:13;100472.63;;;26.96;38.69
38038;BME280;23843;51.320;12.340;2023-06-14T05:29:39;100464.47;;;27.25;33.15
38038;BME280;23843;51.320;12.340;2023-06-14T05:32:05;100472.50;;;27.85;32.68
38038;BME280;23843;51.320;12.340;2023-06-14T05:34:30;100466.47;;;27.53;30.98
38038;BME280;23843;51.320;12.340;2023-06-14T05:36:56;100479.97;;;26.34;35.62
38038;BME280;23843;51.320;12.340;2023-06-14T05:39:23;100480.31;;;25.85;36.25
38038;BME280;23843;51.320;12.340;2023-06-14T05:41:48;100476.94;;;26.14;33.84
38038;BME280;23843;51.320;12.340;2023-06-14T05:44:13;100488.34;;;27.60;34.50
38038;BME280;23843;51.320;12.340;2023-06-14T05:46:39;100480.19;;;27.96;34.39
38038;BME280;23843;51.320;12.340;2023-06-14T05:49:04;100487.53;;;28.17;29.33
38038;BME280;23843;51.320;12.340;2023-06-14T05:51:30;100489.38;;;28.16;30.03
38038;BME280;23843;51.320;12.340;2023-06-14T05:53:55;100490.69;;;27.99;29.52
38038;BME280;23843;51.320;12.340;2023-06-14T05:56:22;100488.25;;;26.94;32.15
38038;BME280;23843;51.320;12.340;2023-06-14T05:58:48;100494.97;;;26.07;32.48
38038;BME280;23843;51.320;12.340;2023-06-14T06:01:13;100487.53;;;25.70;35.42
38038;BME280;23843;51.320;12.340;2023-06-14T06:03:39;100485.72;;;26.16;35.07
38038;BME280;23843;51.320;12.340;2023-06-14T06:06:04;100494.94;;;27.36;33.57
38038;BME280;23843;51.320;12.340;2023-06-14T06:08:30;100493.94;;;29.09;31.68
38038;BME280;23843;51.320;12.340;2023-06-14T06:10:56;100491.94;;;29.24;29.86
38038;BME280;23843;51.320;12.340;2023-06-14T06:13:22;100503.31;;;29.89;28.28
38038;BME280;23843;51.320;12.340;2023-06-14T06:15:48;100507.78;;;30.03;26.19
38038;BME280;23843;51.320;12.340;2023-06-14T06:18:14;100514.16;;;30.50;28.38
38038;BME280;23843;51.320;12.340;2023-06-14T06:20:39;100511.44;;;30.44;26.34
38038;BME280;23843;51.320;12.340;2023-06-14T06:23:05;100500.69;;;30.36;25.97
38038;BME280;23843;51.320;12.340;2023-06-14T06:25:30;100498.91;;;31.86;25.98
38038;BME280;23843;51.320;12.340;2023-06-14T06:27:55;100504.09;;;32.33;23.48
38038;BME280;23843;51.320;12.340;2023-06-14T06:30:22;100505.94;;;33.33;23.05
38038;BME280;23843;51.320;12.340;2023-06-14T06:32:48;100497.25;;;33.73;24.74
38038;BME280;23843;51.320;12.340;2023-06-14T06:35:14;100494.47;;;33.54;22.27
38038;BME280;23843;51.320;12.340;2023-06-14T06:37:40;100508.31;;;33.29;25.92
38038;BME280;23843;51.320;12.340;2023-06-14T06:40:07;100513.56;;;33.12;22.99
38038;BME280;23843;51.320;12.340;2023-06-14T06:42:32;100515.66;;;32.67;22.67
38038;BME280;23843;51.320;12.340;2023-06-14T06:44:58;100507.63;;;33.71;21.54
38038;BME280;23843;51.320;12.340;2023-06-14T06:47:25;100507.16;;;33.74;21.67
38038;BME280;23843;51.320;12.340;2023-06-14T06:49:50;100521.66;;;33.62;21.37
38038;BME280;23843;51.320;12.340;2023-06-14T06:52:16;100513.31;;;32.13;22.41
38038;BME280;23843;51.320;12.340;2023-06-14T06:54:42;100510.06;;;33.23;22.23
38038;BME280;23843;51.320;12.340;2023-06-14T06:57:07;100511.28;;;33.64;22.02
38038;BME280;23843;51.320;12.340;2023-06-14T06:59:33;100508.16;;;34.21;20.69
38038;BME280;23843;51.320;12.340;2023-06-14T07:01:59;100512.50;;;33.99;20.52
38038;BME280;23843;51.320;12.340;2023-06-14T07:04:25;100509.25;;;34.02;22.07
38038;BME280;23843;51.320;12.340;2023-06-14T07:06:51;100506.69;;;34.84;20.05
38038;BME280;23843;51.320;12.340;2023-06-14T07:09:16;100509.69;;;35.99;20.51
38038;BME280;23843;51.320;12.340;2023-06-14T07:11:43;100513.13;;;37.90;19.06
38038;BME280;23843;51.320;12.340;2023-06-14T07:14:09;100508.31;;;38.72;17.48
38038;BME280;23843;51.320;12.340;2023-06-14T07:16:35;100511.94;;;38.41;16.79
38038;BME280;23843;51.320;12.340;2023-06-14T07:19:01;100502.63;;;38.47;18.72
38038;BME280;23843;51.320;12.340;2023-06-14T07:21:28;100508.97;;;38.85;16.45
38038;BME280;23843;51.320;12.340;2023-06-14T07:23:53;100519.09;;;38.31;16.24
38038;BME280;23843;51.320;12.340;2023-06-14T07:26:19;100505.38;;;38.47;15.71
38038;BME280;23843;51.320;12.340;2023-06-14T07:28:45;100508.28;;;37.54;16.89
38038;BME280;23843;51.320;12.340;2023-06-14T07:31:11;100512.47;;;37.56;17.49
38038;BME280;23843;51.320;12.340;2023-06-14T07:33:36;100514.56;;;38.90;19.04
38038;BME280;23843;51.320;12.340;2023-06-14T07:36:02;100519.41;;;39.10;15.21
38038;BME280;23843;51.320;12.340;2023-06-14T07:38:29;100521.75;;;38.48;15.80
38038;BME280;23843;51.320;12.340;2023-06-14T07:40:55;100523.09;;;37.25;16.14
38038;BME280;23843;51.320;12.340;2023-06-14T07:43:20;100526.31;;;37.00;16.99
38038;BME280;23843;51.320;12.340;2023-06-14T07:45:46;100516.59;;;38.03;17.19
38038;BME280;23843;51.320;12.340;2023-06-14T07:48:11;100514.31;;;39.44;15.77
38038;BME280;23843;51.320;12.340;2023-06-14T07:50:37;100514.56;;;40.31;16.11
38038;BME280;23843;51.320;12.340;2023-06-14T07:53:02;100514.81;;;40.81;15.04
38038;BME280;23843;51.320;12.340;2023-06-14T07:55:29;100524.28;;;40.39;14.90
38038;BME280;23843;51.320;12.340;2023-06-14T07:57:55;100514.75;;;39.89;16.67
38038;BME280;23843;51.320;12.340;2023-06-14T08:00:20;100516.47;;;40.20;13.77
38038;BME280;23843;51.320;12.340;2023-06-14T08:02:46;100508.31;;;38.72;15.68
38038;BME280;23843;51.320;12.340;2023-06-14T08:05:12;100508.69;;;39.29;15.44
38038;BME280;23843;51.320;12.340;2023-06-14T08:07:38;100515.06;;;39.29;14.76
38038;BME280;23843;51.320;12.340;2023-06-14T08:10:04;100524.47;;;37.67;15.62
38038;BME280;23843;51.320;12.340;2023-06-14T08:12:31;100511.56;;;38.59;15.49
38038;BME280;23843;51.320;12.340;2023-06-14T08:14:56;100520.47;;;39.51;15.28
38038;BME280;23843;51.320;12.340;2023-06-14T08:17:22;100524.16;;;37.63;15.72
38038;BME280;23843;51.320;12.340;2023-06-14T08:19:47;100529.56;;;35.20;17.64
38038;BME280;23843;51.320;12.340;2023-06-14T08:22:12;100522.97;;;33.41;18.79
38038;BME280;23843;51.320;12.340;2023-06-14T08:24:38;100537.47;;;31.85;20.43
38038;BME280;23843;51.320;12.340;2023-06-14T08:27:04;100540.44;;;30.45;22.09
38038;BME280;23843;51.320;12.340;2023-06-14T08:29:31;100539.19;;;30.47;22.16
38038;BME280;23843;51.320;12.340;2023-06-14T08:31:57;100536.03;;;29.69;22.87
38038;BME280;23843;51.320;12.340;2023-06-14T08:34:22;100531.97;;;29.17;24.10
38038;BME280;23843;51.320;12.340;2023-06-14T08:36:48;100535.97;;;29.21;24.36
38038;BME280;23843;51.320;12.340;2023-06-14T08:39:13;100541.66;;;28.70;24.52
38038;BME280;23843;51.320;12.340;2023-06-14T08:41:38;100539.34;;;29.23;24.61
38038;BME280;23843;51.320;12.340;2023-06-14T08:44:04;100537.94;;;30.43;22.90
38038;BME280;23843;51.320;12.340;2023-06-14T08:46:32;100555.84;;;30.92;22.72
38038;BME280;23843;51.320;12.340;2023-06-14T08:48:58;100536.09;;;31.62;22.24
38038;BME280;23843;51.320;12.340;2023-06-14T08:51:25;100528.03;;;33.75;20.77
38038;BME280;23843;51.320;12.340;2023-06-14T08:53:52;100518.09;;;35.75;18.16
38038;BME280;23843;51.320;12.340;2023-06-14T08:56:19;100520.13;;;36.42;17.95
38038;BME280;23843;51.320;12.340;2023-06-14T08:58:44;100517.06;;;36.39;16.70
38038;BME280;23843;51.320;12.340;2023-06-14T09:01:12;100520.63;;;36.22;19.30
38038;BME280;23843;51.320;12.340;2023-06-14T09:03:39;100528.81;;;35.48;17.42
38038;BME280;23843;51.320;12.340;2023-06-14T09:06:04;100523.34;;;34.89;19.21
38038;BME280;23843;51.320;12.340;2023-06-14T09:08:30;100525.47;;;35.46;19.02
38038;BME280;23843;51.320;12.340;2023-06-14T09:10:56;100529.16;;;36.38;17.28
38038;BME280;23843;51.320;12.340;2023-06-14T09:13:22;100527.84;;;35.43;16.93
38038;BME280;23843;51.320;12.340;2023-06-14T09:15:47;100530.56;;;34.06;19.09
38038;BME280;23843;51.320;12.340;2023-06-14T09:18:13;100540.59;;;34.31;18.52
38038;BME280;23843;51.320;12.340;2023-06-14T09:20:40;100525.00;;;34.13;17.37
38038;BME280;23843;51.320;12.340;2023-06-14T09:23:06;100539.69;;;33.88;18.11
38038;BME280;23843;51.320;12.340;2023-06-14T09:27:57;100546.34;;;33.07;18.29
38038;BME280;23843;51.320;12.340;2023-06-14T09:30:22;100535.34;;;31.87;19.65
38038;BME280;23843;51.320;12.340;2023-06-14T09:32:48;100539.06;;;32.69;20.44
38038;BME280;23843;51.320;12.340;2023-06-14T09:35:17;100529.19;;;34.16;18.35
38038;BME280;23843;51.320;12.340;2023-06-14T09:37:44;100528.72;;;33.88;17.70
38038;BME280;23843;51.320;12.340;2023-06-14T09:40:10;100531.00;;;32.74;18.63
38038;BME280;23843;51.320;12.340;2023-06-14T09:42:36;100535.53;;;31.98;19.96
38038;BME280;23843;51.320;12.340;2023-06-14T09:45:03;100525.13;;;30.84;20.68
38038;BME280;23843;51.320;12.340;2023-06-14T09:47:28;100534.34;;;29.27;22.35
38038;BME280;23843;51.320;12.340;2023-06-14T09:49:55;100527.09;;;28.84;23.44
38038;BME280;23843;51.320;12.340;2023-06-14T09:52:22;100528.25;;;28.68;22.81
38038;BME280;23843;51.320;12.340;2023-06-14T09:54:49;100528.19;;;27.97;23.17
38038;BME280;23843;51.320;12.340;2023-06-14T09:57:16;100528.72;;;27.41;24.38
38038;BME280;23843;51.320;12.340;2023-06-14T09:59:43;100524.38;;;26.87;25.32
38038;BME280;23843;51.320;12.340;2023-06-14T10:02:12;100537.25;;;26.47;25.38
38038;BME280;23843;51.320;12.340;2023-06-14T10:04:39;100526.69;;;26.07;26.13
38038;BME280;23843;51.320;12.340;2023-06-14T10:07:09;100536.03;;;25.73;26.45
38038;BME280;23843;51.320;12.340;2023-06-14T10:09:35;100531.78;;;25.31;27.41
38038;BME280;23843;51.320;12.340;2023-06-14T10:12:03;100531.13;;;25.20;27.47
38038;BME280;23843;51.320;12.340;2023-06-14T10:14:29;100523.84;;;25.29;27.06
38038;BME280;23843;51.320;12.340;2023-06-14T10:16:57;100537.41;;;25.21;26.45
38038;BME280;23843;51.320;12.340;2023-06-14T10:19:31;100538.81;;;24.76;28.28
38038;BME280;23843;51.320;12.340;2023-06-14T10:22:02;100525.81;;;24.63;27.96
38038;BME280;23843;51.320;12.340;2023-06-14T10:24:32;100536.94;;;24.85;27.57
38038;BME280;23843;51.320;12.340;2023-06-14T10:26:59;100541.38;;;24.61;28.37
38038;BME280;23843;51.320;12.340;2023-06-14T10:29:27;100541.63;;;24.09;28.69
38038;BME280;23843;51.320;12.340;2023-06-14T10:31:57;100545.19;;;23.67;28.81
38038;BME280;23843;51.320;12.340;2023-06-14T10:34:23;100543.28;;;23.51;29.59
38038;BME280;23843;51.320;12.340;2023-06-14T10:37:01;100533.47;;;23.50;30.42
38038;BME280;23843;51.320;12.340;2023-06-14T10:39:27;100536.34;;;23.14;31.80
38038;BME280;23843;51.320;12.340;2023-06-14T10:41:55;100534.38;;;22.98;32.11
38038;BME280;23843;51.320;12.340;2023-06-14T10:44:44;100538.16;;;23.05;32.83
38038;BME280;23843;51.320;12.340;2023-06-14T10:47:11;100532.69;;;22.97;33.36
38038;BME280;23843;51.320;12.340;2023-06-14T10:49:46;100526.66;;;23.03;33.14
38038;BME280;23843;51.320;12.340;2023-06-14T10:52:17;100520.69;;;23.26;32.31
38038;BME280;23843;51.320;12.340;2023-06-14T10:55:05;100529.13;;;23.23;32.73
38038;BME280;23843;51.320;12.340;2023-06-14T10:57:31;100523.00;;;23.13;32.01
38038;BME280;23843;51.320;12.340;2023-06-14T10:59:57;100527.50;;;23.04;32.04
38038;BME280;23843;51.320;12.340;2023-06-14T11:02:47;100553.34;;;22.62;33.13
38038;BME280;23843;51.320;12.340;2023-06-14T11:05:15;100532.38;;;22.20;34.47
38038;BME280;23843;51.320;12.340;2023-06-14T11:07:46;100527.84;;;22.21;34.52
38038;BME280;23843;51.320;12.340;2023-06-14T11:10:23;100530.16;;;22.34;34.44
38038;BME280;23843;51.320;12.340;2023-06-14T11:12:53;100520.69;;;22.30;32.88
38038;BME280;23843;51.320;12.340;2023-06-14T11:15:28;100530.38;;;22.05;34.77
38038;BME280;23843;51.320;12.340;2023-06-14T11:17:53;100528.41;;;21.97;33.88
38038;BME280;23843;51.320;12.340;2023-06-14T11:20:19;100531.22;;;21.77;35.52
38038;BME280;23843;51.320;12.340;2023-06-14T11:22:44;100531.44;;;21.66;35.65
38038;BME280;23843;51.320;12.340;2023-06-14T11:25:11;100527.34;;;21.62;36.70
38038;BME280;23843;51.320;12.340;2023-06-14T11:27:41;100530.66;;;21.56;36.87
38038;BME280;23843;51.320;12.340;2023-06-14T11:30:08;100504.03;;;21.71;36.12
38038;BME280;23843;51.320;12.340;2023-06-14T11:32:35;100513.00;;;21.89;35.48
38038;BME280;23843;51.320;12.340;2023-06-14T11:35:01;100516.69;;;22.06;35.94
38038;BME280;23843;51.320;12.340;2023-06-14T11:37:27;100506.75;;;21.89;35.87
38038;BME280;23843;51.320;12.340;2023-06-14T11:39:56;100498.72;;;21.97;35.90
38038;BME280;23843;51.320;12.340;2023-06-14T11:42:21;100502.63;;;22.12;35.58
38038;BME280;23843;51.320;12.340;2023-06-14T11:44:47;100496.72;;;21.99;36.28
38038;BME280;23843;51.320;12.340;2023-06-14T11:47:12;100493.66;;;21.94;35.52
38038;BME280;23843;51.320;12.340;2023-06-14T11:49:39;100495.66;;;21.92;37.38
38038;BME280;23843;51.320;12.340;2023-06-14T11:52:05;100501.34;;;21.89;37.60
38038;BME280;23843;51.320;12.340;2023-06-14T11:54:31;100489.97;;;21.95;37.14
38038;BME280;23843;51.320;12.340;2023-06-14T11:56:57;100482.78;;;22.04;36.49
38038;BME280;23843;51.320;12.340;2023-06-14T11:59:24;100480.66;;;22.07;36.34
38038;BME280;23843;51.320;12.340;2023-06-14T12:01:49;100484.44;;;22.14;35.76
38038;BME280;23843;51.320;12.340;2023-06-14T12:04:23;100490.28;;;22.10;35.14
38038;BME280;23843;51.320;12.340;2023-06-14T12:06:51;100504.06;;;21.89;35.16
38038;BME280;23843;51.320;12.340;2023-06-14T12:09:17;100480.47;;;21.73;36.47
38038;BME280;23843;51.320;12.340;2023-06-14T12:11:42;100480.47;;;21.91;36.33
38038;BME280;23843;51.320;12.340;2023-06-14T12:14:08;100482.19;;;22.10;35.98
38038;BME280;23843;51.320;12.340;2023-06-14T12:16:38;100475.25;;;22.25;34.36
38038;BME280;23843;51.320;12.340;2023-06-14T12:19:12;100486.28;;;22.32;35.23
38038;BME280;23843;51.320;12.340;2023-06-14T12:21:38;100480.84;;;22.14;36.16
38038;BME280;23843;51.320;12.340;2023-06-14T12:24:06;100474.56;;;22.05;36.18
38038;BME280;23843;51.320;12.340;2023-06-14T12:26:32;100476.94;;;22.08;37.37
38038;BME280;23843;51.320;12.340;2023-06-14T12:28:57;100475.84;;;22.19;37.39
38038;BME280;23843;51.320;12.340;2023-06-14T12:31:26;100474.53;;;22.41;35.99
38038;BME280;23843;51.320;12.340;2023-06-14T12:33:51;100464.41;;;22.61;35.72
38038;BME280;23843;51.320;12.340;2023-06-14T12:36:17;100460.41;;;22.99;34.64
38038;BME280;23843;51.320;12.340;2023-06-14T12:38:42;100472.34;;;23.15;33.36